sensor_id;sensor_type;location;lat;lon;timestamp;P1;durP1;ratioP1;P2;durP2;ratioP2
31073;SDS011;17730;53.552;9.940;2023-02-12T00:01:23;14.05;;;5.13;;
31073;SDS011;17730;53.552;9.940;2023-02-12T00:03:50;13.73;;;4.93;;
31073;SDS011;17730;53.552;9.940;2023-02-12T00:06:15;13.75;;;5.40;;
31073;SDS011;17730;53.552;9.940;2023-02-12T00:08:41;13.82;;;5.13;;
31073;SDS011;17730;53.552;9.940;2023-02-12T00:11:08;10.15;;;4.85;;
31073;SDS011;17730;53.552;9.940;2023-02-12T00:13:34;11.80;;;6.03;;
31073;SDS011;17730;53.552;9.940;2023-02-12T00:16:02;14.50;;;5.00;;
31073;SDS011;17730;53.552;9.940;2023-02-12T00:18:32;11.65;;;4.60;;
31073;SDS011;17730;53.552;9.940;2023-02-12T00:20:58;12.23;;;4.47;;
31073;SDS011;17730;53.552;9.940;2023-02-12T00:23:25;12.10;;;5.10;;
31073;SDS011;17730;53.552;9.940;2023-02-12T00:25:50;15.93;;;6.50;;
31073;SDS011;17730;53.552;9.940;2023-02-12T00:28:16;11.85;;;5.03;;
31073;SDS011;17730;53.552;9.940;2023-02-12T00:30:41;17.25;;;8.07;;
31073;SDS011;17730;53.552;9.940;2023-02-12T00:33:07;13.65;;;5.97;;
31073;SDS011;17730;53.552;9.940;2023-02-12T00:35:33;11.30;;;4.80;;
31073;SDS011;17730;53.552;9.940;2023-02-12T00:37:58;10.35;;;4.80;;
31073;SDS011;17730;53.552;9.940;2023-02-12T00:40:24;9.55;;;5.10;;
31073;SDS011;17730;53.552;9.940;2023-02-12T00:42:50;12.30;;;4.32;;
31073;SDS011;17730;53.552;9.940;2023-02-12T00:45:15;7.93;;;3.78;;
31073;SDS011;17730;53.552;9.940;2023-02-12T00:47:41;9.63;;;4.18;;
31073;SDS011;17730;53.552;9.940;2023-02-12T00:50:06;6.47;;;3.17;;
31073;SDS011;17730;53.552;9.940;2023-02-12T00:52:32;6.40;;;3.00;;
31073;SDS011;17730;53.552;9.940;2023-02-12T00:54:58;7.20;;;3.22;;
31073;SDS011;17730;53.552;9.940;2023-02-12T00:57:23;7.95;;;4.25;;
31073;SDS011;17730;53.552;9.940;2023-02-12T00:59:49;8.45;;;3.70;;
31073;SDS011;17730;53.552;9.940;2023-02-12T01:02:14;8.02;;;2.90;;
31073;SDS011;17730;53.552;9.940;2023-02-12T01:04:40;7.70;;;3.08;;
31073;SDS011;17730;53.552;9.940;2023-02-12T01:07:05;9.68;;;3.20;;
31073;SDS011;17730;53.552;9.940;2023-02-12T01:09:31;6.32;;;3.03;;
31073;SDS011;17730;53.552;9.940;2023-02-12T01:11:56;7.93;;;3.10;;
31073;SDS011;17730;53.552;9.940;2023-02-12T01:14:22;5.88;;;3.03;;
31073;SDS011;17730;53.552;9.940;2023-02-12T01:16:47;5.57;;;3.05;;
31073;SDS011;17730;53.552;9.940;2023-02-12T01:19:13;6.40;;;3.25;;
31073;SDS011;17730;53.552;9.940;2023-02-12T01:21:39;7.60;;;2.90;;
31073;SDS011;17730;53.552;9.940;2023-02-12T01:24:04;5.40;;;2.80;;
31073;SDS011;17730;53.552;9.940;2023-02-12T01:26:30;7.15;;;2.08;;
31073;SDS011;17730;53.552;9.940;2023-02-12T01:28:57;7.45;;;2.75;;
31073;SDS011;17730;53.552;9.940;2023-02-12T01:31:26;8.60;;;3.70;;
31073;SDS011;17730;53.552;9.940;2023-02-12T01:33:54;7.22;;;3.15;;
31073;SDS011;17730;53.552;9.940;2023-02-12T01:36:21;6.88;;;3.08;;
31073;SDS011;17730;53.552;9.940;2023-02-12T01:38:47;12.63;;;3.60;;
31073;SDS011;17730;53.552;9.940;2023-02-12T01:41:24;8.45;;;4.15;;
31073;SDS011;17730;53.552;9.940;2023-02-12T01:44:16;9.65;;;3.03;;
31073;SDS011;17730;53.552;9.940;2023-02-12T01:49:11;12.57;;;3.75;;
31073;SDS011;17730;53.552;9.940;2023-02-12T01:51:42;11.02;;;4.20;;
31073;SDS011;17730;53.552;9.940;2023-02-12T01:54:09;9.95;;;4.13;;
31073;SDS011;17730;53.552;9.940;2023-02-12T01:56:37;12.18;;;4.50;;
31073;SDS011;17730;53.552;9.940;2023-02-12T01:59:04;12.15;;;5.00;;
31073;SDS011;17730;53.552;9.940;2023-02-12T02:01:30;14.25;;;5.57;;
31073;SDS011;17730;53.552;9.940;2023-02-12T02:04:01;13.90;;;5.10;;
31073;SDS011;17730;53.552;9.940;2023-02-12T02:06:37;11.32;;;4.78;;
31073;SDS011;17730;53.552;9.940;2023-02-12T02:09:14;14.43;;;5.28;;
31073;SDS011;17730;53.552;9.940;2023-02-12T02:11:42;18.08;;;5.78;;
31073;SDS011;17730;53.552;9.940;2023-02-12T02:14:26;10.45;;;4.57;;
31073;SDS011;17730;53.552;9.940;2023-02-12T02:29:04;11.75;;;4.55;;
31073;SDS011;17730;53.552;9.940;2023-02-12T02:31:57;10.73;;;4.55;;
31073;SDS011;17730;53.552;9.940;2023-02-12T02:34:38;12.75;;;3.72;;
31073;SDS011;17730;53.552;9.940;2023-02-12T02:37:31;9.73;;;3.97;;
31073;SDS011;17730;53.552;9.940;2023-02-12T02:40:16;18.98;;;5.18;;
31073;SDS011;17730;53.552;9.940;2023-02-12T02:42:59;8.88;;;3.67;;
31073;SDS011;17730;53.552;9.940;2023-02-12T02:45:47;11.80;;;4.72;;
31073;SDS011;17730;53.552;9.940;2023-02-12T02:50:53;16.55;;;4.15;;
31073;SDS011;17730;53.552;9.940;2023-02-12T02:53:29;11.02;;;4.25;;
31073;SDS011;17730;53.552;9.940;2023-02-12T02:55:58;13.82;;;4.93;;
31073;SDS011;17730;53.552;9.940;2023-02-12T02:58:30;14.48;;;4.70;;
31073;SDS011;17730;53.552;9.940;2023-02-12T03:01:04;16.83;;;4.18;;
31073;SDS011;17730;53.552;9.940;2023-02-12T03:03:49;12.20;;;4.00;;
31073;SDS011;17730;53.552;9.940;2023-02-12T03:06:25;7.13;;;3.35;;
31073;SDS011;17730;53.552;9.940;2023-02-12T03:09:12;12.63;;;4.15;;
31073;SDS011;17730;53.552;9.940;2023-02-12T03:11:39;10.98;;;3.90;;
31073;SDS011;17730;53.552;9.940;2023-02-12T03:14:07;13.25;;;3.83;;
31073;SDS011;17730;53.552;9.940;2023-02-12T03:19:31;12.70;;;4.20;;
31073;SDS011;17730;53.552;9.940;2023-02-12T03:22:08;14.90;;;3.42;;
31073;SDS011;17730;53.552;9.940;2023-02-12T03:24:48;9.10;;;4.13;;
31073;SDS011;17730;53.552;9.940;2023-02-12T03:29:43;8.52;;;3.28;;
31073;SDS011;17730;53.552;9.940;2023-02-12T03:32:13;5.47;;;2.83;;
31073;SDS011;17730;53.552;9.940;2023-02-12T03:34:50;11.95;;;3.47;;
31073;SDS011;17730;53.552;9.940;2023-02-12T03:37:29;10.07;;;3.40;;
31073;SDS011;17730;53.552;9.940;2023-02-12T03:40:05;10.73;;;3.67;;
31073;SDS011;17730;53.552;9.940;2023-02-12T03:42:34;10.50;;;3.75;;
31073;SDS011;17730;53.552;9.940;2023-02-12T03:45:10;19.17;;;4.65;;
31073;SDS011;17730;53.552;9.940;2023-02-12T03:53:11;9.15;;;4.13;;
31073;SDS011;17730;53.552;9.940;2023-02-12T03:55:39;12.10;;;4.75;;
31073;SDS011;17730;53.552;9.940;2023-02-12T03:58:08;10.90;;;3.63;;
31073;SDS011;17730;53.552;9.940;2023-02-12T04:00:36;22.88;;;4.95;;
31073;SDS011;17730;53.552;9.940;2023-02-12T04:03:03;14.45;;;3.70;;
31073;SDS011;17730;53.552;9.940;2023-02-12T04:05:29;28.23;;;3.53;;
31073;SDS011;17730;53.552;9.940;2023-02-12T04:07:55;27.52;;;4.28;;
31073;SDS011;17730;53.552;9.940;2023-02-12T04:10:42;23.80;;;4.13;;
31073;SDS011;17730;53.552;9.940;2023-02-12T04:13:43;25.80;;;4.80;;
31073;SDS011;17730;53.552;9.940;2023-02-12T04:16:23;24.83;;;5.07;;
31073;SDS011;17730;53.552;9.940;2023-02-12T04:18:53;12.90;;;5.10;;
31073;SDS011;17730;53.552;9.940;2023-02-12T04:21:42;15.85;;;5.20;;
31073;SDS011;17730;53.552;9.940;2023-02-12T04:24:18;24.27;;;5.40;;
31073;SDS011;17730;53.552;9.940;2023-02-12T04:27:09;48.40;;;6.40;;
31073;SDS011;17730;53.552;9.940;2023-02-12T04:32:48;37.15;;;7.18;;
31073;SDS011;17730;53.552;9.940;2023-02-12T04:35:23;67.50;;;8.80;;
31073;SDS011;17730;53.552;9.940;2023-02-12T04:38:05;71.97;;;8.80;;
31073;SDS011;17730;53.552;9.940;2023-02-12T04:40:39;87.68;;;9.63;;
31073;SDS011;17730;53.552;9.940;2023-02-12T04:43:06;89.85;;;9.45;;
31073;SDS011;17730;53.552;9.940;2023-02-12T04:45:32;59.42;;;9.65;;
31073;SDS011;17730;53.552;9.940;2023-02-12T04:48:00;79.60;;;11.85;;
31073;SDS011;17730;53.552;9.940;2023-02-12T04:50:28;73.20;;;10.40;;
31073;SDS011;17730;53.552;9.940;2023-02-12T04:53:04;94.35;;;12.35;;
31073;SDS011;17730;53.552;9.940;2023-02-12T04:55:30;175.60;;;14.77;;
31073;SDS011;17730;53.552;9.940;2023-02-12T04:57:55;168.23;;;16.67;;
31073;SDS011;17730;53.552;9.940;2023-02-12T05:00:21;209.55;;;16.08;;
31073;SDS011;17730;53.552;9.940;2023-02-12T05:02:46;168.85;;;15.32;;
31073;SDS011;17730;53.552;9.940;2023-02-12T05:05:12;209.50;;;16.88;;
31073;SDS011;17730;53.552;9.940;2023-02-12T05:07:37;158.15;;;15.35;;
31073;SDS011;17730;53.552;9.940;2023-02-12T05:10:03;225.80;;;15.93;;
31073;SDS011;17730;53.552;9.940;2023-02-12T05:12:29;154.77;;;14.90;;
31073;SDS011;17730;53.552;9.940;2023-02-12T05:14:55;153.63;;;13.10;;
31073;SDS011;17730;53.552;9.940;2023-02-12T05:17:21;174.40;;;15.13;;
31073;SDS011;17730;53.552;9.940;2023-02-12T05:19:48;206.30;;;16.25;;
31073;SDS011;17730;53.552;9.940;2023-02-12T05:22:13;141.38;;;15.45;;
31073;SDS011;17730;53.552;9.940;2023-02-12T05:24:39;144.93;;;12.60;;
31073;SDS011;17730;53.552;9.940;2023-02-12T05:27:04;191.13;;;15.68;;
31073;SDS011;17730;53.552;9.940;2023-02-12T05:29:30;158.60;;;13.68;;
31073;SDS011;17730;53.552;9.940;2023-02-12T05:31:55;127.20;;;14.43;;
31073;SDS011;17730;53.552;9.940;2023-02-12T05:34:21;108.82;;;13.25;;
31073;SDS011;17730;53.552;9.940;2023-02-12T05:36:47;95.80;;;13.52;;
31073;SDS011;17730;53.552;9.940;2023-02-12T05:39:12;110.97;;;14.40;;
31073;SDS011;17730;53.552;9.940;2023-02-12T05:41:38;121.22;;;15.88;;
31073;SDS011;17730;53.552;9.940;2023-02-12T05:44:03;143.95;;;14.85;;
31073;SDS011;17730;53.552;9.940;2023-02-12T05:46:30;142.00;;;14.65;;
31073;SDS011;17730;53.552;9.940;2023-02-12T05:48:56;114.15;;;14.48;;
31073;SDS011;17730;53.552;9.940;2023-02-12T05:51:23;159.15;;;14.48;;
31073;SDS011;17730;53.552;9.940;2023-02-12T05:53:50;228.30;;;16.70;;
31073;SDS011;17730;53.552;9.940;2023-02-12T05:56:20;185.15;;;14.52;;
31073;SDS011;17730;53.552;9.940;2023-02-12T05:58:58;194.27;;;14.20;;
31073;SDS011;17730;53.552;9.940;2023-02-12T06:01:28;120.25;;;12.75;;
31073;SDS011;17730;53.552;9.940;2023-02-12T06:03:56;144.50;;;18.27;;
31073;SDS011;17730;53.552;9.940;2023-02-12T06:06:27;172.13;;;15.27;;
31073;SDS011;17730;53.552;9.940;2023-02-12T06:08:53;249.38;;;15.95;;
31073;SDS011;17730;53.552;9.940;2023-02-12T06:11:19;195.02;;;15.30;;
31073;SDS011;17730;53.552;9.940;2023-02-12T06:13:45;148.38;;;16.98;;
31073;SDS011;17730;53.552;9.940;2023-02-12T06:16:22;135.80;;;14.52;;
31073;SDS011;17730;53.552;9.940;2023-02-12T06:18:49;163.75;;;17.58;;
31073;SDS011;17730;53.552;9.940;2023-02-12T06:21:15;101.43;;;15.65;;
31073;SDS011;17730;53.552;9.940;2023-02-12T06:23:42;108.82;;;14.13;;
31073;SDS011;17730;53.552;9.940;2023-02-12T06:26:08;83.82;;;12.35;;
31073;SDS011;17730;53.552;9.940;2023-02-12T06:28:34;106.07;;;16.33;;
31073;SDS011;17730;53.552;9.940;2023-02-12T06:30:59;142.95;;;14.75;;
31073;SDS011;17730;53.552;9.940;2023-02-12T06:33:25;148.82;;;15.57;;
31073;SDS011;17730;53.552;9.940;2023-02-12T06:35:50;88.95;;;14.57;;
31073;SDS011;17730;53.552;9.940;2023-02-12T06:38:16;118.18;;;13.95;;
31073;SDS011;17730;53.552;9.940;2023-02-12T06:40:42;125.70;;;15.10;;
31073;SDS011;17730;53.552;9.940;2023-02-12T06:43:07;93.28;;;12.88;;
31073;SDS011;17730;53.552;9.940;2023-02-12T06:45:33;105.65;;;14.38;;
31073;SDS011;17730;53.552;9.940;2023-02-12T06:47:59;88.13;;;12.70;;
31073;SDS011;17730;53.552;9.940;2023-02-12T06:50:24;119.28;;;14.10;;
31073;SDS011;17730;53.552;9.940;2023-02-12T06:52:50;94.03;;;13.65;;
31073;SDS011;17730;53.552;9.940;2023-02-12T06:55:16;125.15;;;13.57;;
31073;SDS011;17730;53.552;9.940;2023-02-12T06:57:41;151.18;;;15.40;;
31073;SDS011;17730;53.552;9.940;2023-02-12T07:00:07;112.10;;;13.85;;
31073;SDS011;17730;53.552;9.940;2023-02-12T07:02:33;120.28;;;14.80;;
31073;SDS011;17730;53.552;9.940;2023-02-12T07:04:59;175.73;;;14.32;;
31073;SDS011;17730;53.552;9.940;2023-02-12T07:07:24;140.43;;;13.63;;
31073;SDS011;17730;53.552;9.940;2023-02-12T07:09:50;307.13;;;19.48;;
31073;SDS011;17730;53.552;9.940;2023-02-12T07:12:15;101.55;;;12.95;;
31073;SDS011;17730;53.552;9.940;2023-02-12T07:14:41;100.60;;;14.65;;
31073;SDS011;17730;53.552;9.940;2023-02-12T07:17:06;171.23;;;17.45;;
31073;SDS011;17730;53.552;9.940;2023-02-12T07:19:33;183.30;;;14.98;;
31073;SDS011;17730;53.552;9.940;2023-02-12T07:22:00;166.05;;;16.30;;
31073;SDS011;17730;53.552;9.940;2023-02-12T07:24:25;131.73;;;13.68;;
31073;SDS011;17730;53.552;9.940;2023-02-12T07:26:51;165.02;;;15.00;;
31073;SDS011;17730;53.552;9.940;2023-02-12T07:29:16;332.60;;;19.48;;
31073;SDS011;17730;53.552;9.940;2023-02-12T07:31:42;150.07;;;15.70;;
31073;SDS011;17730;53.552;9.940;2023-02-12T07:34:08;146.90;;;15.23;;
31073;SDS011;17730;53.552;9.940;2023-02-12T07:36:35;334.65;;;22.80;;
31073;SDS011;17730;53.552;9.940;2023-02-12T07:39:00;175.30;;;17.42;;
31073;SDS011;17730;53.552;9.940;2023-02-12T07:41:30;312.17;;;21.02;;
31073;SDS011;17730;53.552;9.940;2023-02-12T07:44:07;169.40;;;17.25;;
31073;SDS011;17730;53.552;9.940;2023-02-12T07:46:36;310.90;;;21.90;;
31073;SDS011;17730;53.552;9.940;2023-02-12T07:49:05;213.55;;;17.38;;
31073;SDS011;17730;53.552;9.940;2023-02-12T07:51:32;206.65;;;19.20;;
31073;SDS011;17730;53.552;9.940;2023-02-12T07:53:58;198.88;;;18.58;;
31073;SDS011;17730;53.552;9.940;2023-02-12T07:56:28;156.32;;;18.08;;
31073;SDS011;17730;53.552;9.940;2023-02-12T07:58:56;154.30;;;18.08;;
31073;SDS011;17730;53.552;9.940;2023-02-12T08:01:30;117.38;;;18.05;;
31073;SDS011;17730;53.552;9.940;2023-02-12T08:04:05;130.15;;;18.23;;
31073;SDS011;17730;53.552;9.940;2023-02-12T08:06:34;188.45;;;21.33;;
31073;SDS011;17730;53.552;9.940;2023-02-12T08:09:02;88.93;;;18.02;;
31073;SDS011;17730;53.552;9.940;2023-02-12T08:11:29;146.00;;;20.30;;
31073;SDS011;17730;53.552;9.940;2023-02-12T08:13:56;130.63;;;20.23;;
31073;SDS011;17730;53.552;9.940;2023-02-12T08:16:23;177.70;;;21.05;;
31073;SDS011;17730;53.552;9.940;2023-02-12T08:18:50;156.48;;;22.52;;
31073;SDS011;17730;53.552;9.940;2023-02-12T08:21:20;222.13;;;22.63;;
31073;SDS011;17730;53.552;9.940;2023-02-12T08:23:47;190.73;;;24.95;;
31073;SDS011;17730;53.552;9.940;2023-02-12T08:29:03;209.60;;;24.05;;
31073;SDS011;17730;53.552;9.940;2023-02-12T08:31:34;173.65;;;22.25;;
31073;SDS011;17730;53.552;9.940;2023-02-12T08:34:04;103.05;;;21.23;;
31073;SDS011;17730;53.552;9.940;2023-02-12T08:36:34;150.57;;;22.13;;
31073;SDS011;17730;53.552;9.940;2023-02-12T08:39:01;110.55;;;22.15;;
31073;SDS011;17730;53.552;9.940;2023-02-12T08:41:28;154.85;;;23.08;;
31073;SDS011;17730;53.552;9.940;2023-02-12T08:43:56;97.40;;;19.38;;
31073;SDS011;17730;53.552;9.940;2023-02-12T08:46:27;106.63;;;22.17;;
31073;SDS011;17730;53.552;9.940;2023-02-12T08:48:54;80.38;;;21.17;;
31073;SDS011;17730;53.552;9.940;2023-02-12T08:51:23;83.65;;;20.38;;
31073;SDS011;17730;53.552;9.940;2023-02-12T08:53:52;71.03;;;20.50;;
31073;SDS011;17730;53.552;9.940;2023-02-12T08:56:20;58.97;;;19.67;;
31073;SDS011;17730;53.552;9.940;2023-02-12T08:58:46;79.00;;;20.90;;
31073;SDS011;17730;53.552;9.940;2023-02-12T09:01:15;59.17;;;20.77;;
31073;SDS011;17730;53.552;9.940;2023-02-12T09:03:46;78.45;;;22.63;;
31073;SDS011;17730;53.552;9.940;2023-02-12T09:06:13;70.85;;;21.70;;
31073;SDS011;17730;53.552;9.940;2023-02-12T09:08:40;54.05;;;19.45;;
31073;SDS011;17730;53.552;9.940;2023-02-12T09:11:10;52.67;;;18.98;;
31073;SDS011;17730;53.552;9.940;2023-02-12T09:13:38;162.15;;;22.65;;
31073;SDS011;17730;53.552;9.940;2023-02-12T09:16:05;60.22;;;20.05;;
31073;SDS011;17730;53.552;9.940;2023-02-12T09:18:31;46.17;;;19.38;;
31073;SDS011;17730;53.552;9.940;2023-02-12T09:21:01;58.95;;;19.58;;
31073;SDS011;17730;53.552;9.940;2023-02-12T09:23:32;49.97;;;18.40;;
31073;SDS011;17730;53.552;9.940;2023-02-12T09:25:58;53.75;;;19.25;;
31073;SDS011;17730;53.552;9.940;2023-02-12T09:28:24;133.82;;;20.33;;
31073;SDS011;17730;53.552;9.940;2023-02-12T09:30:49;79.50;;;17.80;;
31073;SDS011;17730;53.552;9.940;2023-02-12T09:33:15;135.38;;;21.35;;
31073;SDS011;17730;53.552;9.940;2023-02-12T09:35:41;71.82;;;19.17;;
31073;SDS011;17730;53.552;9.940;2023-02-12T09:38:06;50.40;;;19.10;;
31073;SDS011;17730;53.552;9.940;2023-02-12T09:45:37;46.13;;;18.30;;
31073;SDS011;17730;53.552;9.940;2023-02-12T09:48:11;49.67;;;19.27;;
31073;SDS011;17730;53.552;9.940;2023-02-12T09:50:48;51.50;;;20.42;;
31073;SDS011;17730;53.552;9.940;2023-02-12T09:53:18;41.63;;;19.00;;
31073;SDS011;17730;53.552;9.940;2023-02-12T09:55:47;62.25;;;20.48;;
31073;SDS011;17730;53.552;9.940;2023-02-12T09:58:35;49.08;;;20.58;;
31073;SDS011;17730;53.552;9.940;2023-02-12T10:01:16;54.47;;;20.70;;
31073;SDS011;17730;53.552;9.940;2023-02-12T10:03:44;45.25;;;20.58;;
31073;SDS011;17730;53.552;9.940;2023-02-12T10:06:13;43.72;;;19.42;;
31073;SDS011;17730;53.552;9.940;2023-02-12T10:09:01;41.25;;;19.45;;
31073;SDS011;17730;53.552;9.940;2023-02-12T10:11:55;43.43;;;19.60;;
31073;SDS011;17730;53.552;9.940;2023-02-12T10:15:05;42.58;;;19.75;;
31073;SDS011;17730;53.552;9.940;2023-02-12T10:20:37;40.28;;;19.38;;
31073;SDS011;17730;53.552;9.940;2023-02-12T10:23:31;52.60;;;17.55;;
31073;SDS011;17730;53.552;9.940;2023-02-12T10:28:42;42.13;;;17.83;;
31073;SDS011;17730;53.552;9.940;2023-02-12T10:33:41;45.42;;;18.38;;
31073;SDS011;17730;53.552;9.940;2023-02-12T10:41:35;34.63;;;17.80;;
31073;SDS011;17730;53.552;9.940;2023-02-12T10:44:23;32.50;;;15.70;;
31073;SDS011;17730;53.552;9.940;2023-02-12T10:46:49;35.80;;;17.70;;
31073;SDS011;17730;53.552;9.940;2023-02-12T10:49:16;30.60;;;15.93;;
31073;SDS011;17730;53.552;9.940;2023-02-12T10:54:30;29.88;;;14.77;;
31073;SDS011;17730;53.552;9.940;2023-02-12T10:57:09;30.20;;;15.25;;
31073;SDS011;17730;53.552;9.940;2023-02-12T10:59:44;27.43;;;13.47;;
31073;SDS011;17730;53.552;9.940;2023-02-12T11:02:18;28.92;;;15.05;;
31073;SDS011;17730;53.552;9.940;2023-02-12T11:04:52;32.65;;;13.60;;
31073;SDS011;17730;53.552;9.940;2023-02-12T11:07:19;37.28;;;14.60;;
31073;SDS011;17730;53.552;9.940;2023-02-12T11:09:46;28.48;;;13.95;;
31073;SDS011;17730;53.552;9.940;2023-02-12T11:12:22;32.53;;;14.32;;
31073;SDS011;17730;53.552;9.940;2023-02-12T11:15:13;36.45;;;15.38;;
31073;SDS011;17730;53.552;9.940;2023-02-12T11:20:19;29.40;;;13.48;;
31073;SDS011;17730;53.552;9.940;2023-02-12T11:22:58;33.78;;;14.77;;
31073;SDS011;17730;53.552;9.940;2023-02-12T11:25:27;36.88;;;15.45;;
31073;SDS011;17730;53.552;9.940;2023-02-12T11:28:05;38.75;;;16.05;;
31073;SDS011;17730;53.552;9.940;2023-02-12T11:30:55;36.50;;;14.85;;
31073;SDS011;17730;53.552;9.940;2023-02-12T11:33:44;41.08;;;14.95;;
31073;SDS011;17730;53.552;9.940;2023-02-12T11:36:12;51.50;;;16.70;;
31073;SDS011;17730;53.552;9.940;2023-02-12T11:38:48;46.00;;;15.93;;
31073;SDS011;17730;53.552;9.940;2023-02-12T11:43:50;41.92;;;14.38;;
31073;SDS011;17730;53.552;9.940;2023-02-12T11:46:26;27.90;;;13.98;;
31073;SDS011;17730;53.552;9.940;2023-02-12T11:48:52;30.73;;;13.15;;
31073;SDS011;17730;53.552;9.940;2023-02-12T11:51:23;32.75;;;13.82;;
31073;SDS011;17730;53.552;9.940;2023-02-12T11:56:19;25.90;;;11.68;;
31073;SDS011;17730;53.552;9.940;2023-02-12T11:58:46;34.20;;;15.07;;
31073;SDS011;17730;53.552;9.940;2023-02-12T12:01:29;38.05;;;14.52;;
31073;SDS011;17730;53.552;9.940;2023-02-12T12:04:02;28.70;;;15.15;;
31073;SDS011;17730;53.552;9.940;2023-02-12T12:06:36;47.15;;;15.35;;
31073;SDS011;17730;53.552;9.940;2023-02-12T12:09:19;36.78;;;15.98;;
31073;SDS011;17730;53.552;9.940;2023-02-12T12:14:31;52.70;;;14.95;;
31073;SDS011;17730;53.552;9.940;2023-02-12T12:17:45;36.10;;;15.38;;
31073;SDS011;17730;53.552;9.940;2023-02-12T12:20:43;46.22;;;16.50;;
31073;SDS011;17730;53.552;9.940;2023-02-12T12:24:03;50.92;;;17.60;;
31073;SDS011;17730;53.552;9.940;2023-02-12T12:26:10;37.10;;;16.70;;
31073;SDS011;17730;53.552;9.940;2023-02-12T12:31:38;27.95;;;13.88;;
31073;SDS011;17730;53.552;9.940;2023-02-12T12:34:08;28.08;;;12.10;;
31073;SDS011;17730;53.552;9.940;2023-02-12T12:42:13;26.48;;;12.07;;
31073;SDS011;17730;53.552;9.940;2023-02-12T12:51:13;18.35;;;9.27;;
31073;SDS011;17730;53.552;9.940;2023-02-12T12:54:14;14.45;;;8.70;;
31073;SDS011;17730;53.552;9.940;2023-02-12T12:57:19;14.40;;;8.07;;
31073;SDS011;17730;53.552;9.940;2023-02-12T13:11:01;12.07;;;7.15;;
31073;SDS011;17730;53.552;9.940;2023-02-12T13:13:44;11.25;;;7.28;;
31073;SDS011;17730;53.552;9.940;2023-02-12T13:16:20;10.48;;;6.22;;
31073;SDS011;17730;53.552;9.940;2023-02-12T13:19:27;11.48;;;6.93;;
31073;SDS011;17730;53.552;9.940;2023-02-12T13:22:05;10.63;;;5.75;;
31073;SDS011;17730;53.552;9.940;2023-02-12T13:24:51;11.32;;;5.85;;
31073;SDS011;17730;53.552;9.940;2023-02-12T13:27:19;10.02;;;4.85;;
31073;SDS011;17730;53.552;9.940;2023-02-12T13:29:50;11.13;;;5.47;;
31073;SDS011;17730;53.552;9.940;2023-02-12T13:32:21;14.77;;;5.63;;
31073;SDS011;17730;53.552;9.940;2023-02-12T13:34:58;10.95;;;5.80;;
31073;SDS011;17730;53.552;9.940;2023-02-12T13:40:02;11.25;;;5.47;;
31073;SDS011;17730;53.552;9.940;2023-02-12T13:51:03;8.88;;;4.88;;
31073;SDS011;17730;53.552;9.940;2023-02-12T13:56:41;7.68;;;4.85;;
31073;SDS011;17730;53.552;9.940;2023-02-12T14:01:57;9.88;;;5.57;;
31073;SDS011;17730;53.552;9.940;2023-02-12T14:06:57;8.55;;;5.22;;
31073;SDS011;17730;53.552;9.940;2023-02-12T14:09:38;9.60;;;4.93;;
31073;SDS011;17730;53.552;9.940;2023-02-12T14:12:10;9.45;;;4.78;;
31073;SDS011;17730;53.552;9.940;2023-02-12T14:14:39;7.28;;;4.40;;
31073;SDS011;17730;53.552;9.940;2023-02-12T14:19:55;10.98;;;6.05;;
31073;SDS011;17730;53.552;9.940;2023-02-12T14:24:56;15.75;;;7.50;;
31073;SDS011;17730;53.552;9.940;2023-02-12T14:35:50;15.30;;;8.77;;
31073;SDS011;17730;53.552;9.940;2023-02-12T14:40:36;16.75;;;9.23;;
31073;SDS011;17730;53.552;9.940;2023-02-12T14:43:22;19.67;;;9.65;;
31073;SDS011;17730;53.552;9.940;2023-02-12T14:51:18;16.88;;;9.20;;
31073;SDS011;17730;53.552;9.940;2023-02-12T14:53:57;18.33;;;9.30;;
31073;SDS011;17730;53.552;9.940;2023-02-12T14:56:23;20.83;;;9.18;;
31073;SDS011;17730;53.552;9.940;2023-02-12T14:58:49;17.13;;;9.40;;
31073;SDS011;17730;53.552;9.940;2023-02-12T15:01:17;20.77;;;9.57;;
31073;SDS011;17730;53.552;9.940;2023-02-12T15:04:03;18.13;;;9.75;;
31073;SDS011;17730;53.552;9.940;2023-02-12T15:06:59;20.30;;;9.07;;
31073;SDS011;17730;53.552;9.940;2023-02-12T15:09:49;16.95;;;9.45;;
31073;SDS011;17730;53.552;9.940;2023-02-12T15:12:20;19.20;;;10.07;;
31073;SDS011;17730;53.552;9.940;2023-02-12T15:15:14;18.25;;;9.32;;
31073;SDS011;17730;53.552;9.940;2023-02-12T15:17:59;20.92;;;10.43;;
31073;SDS011;17730;53.552;9.940;2023-02-12T15:20:34;21.83;;;10.75;;
31073;SDS011;17730;53.552;9.940;2023-02-12T15:23:38;26.05;;;12.15;;
31073;SDS011;17730;53.552;9.940;2023-02-12T15:26:17;17.83;;;9.55;;
31073;SDS011;17730;53.552;9.940;2023-02-12T15:28:47;14.43;;;8.70;;
31073;SDS011;17730;53.552;9.940;2023-02-12T15:31:18;16.83;;;9.75;;
31073;SDS011;17730;53.552;9.940;2023-02-12T15:33:47;15.52;;;8.60;;
31073;SDS011;17730;53.552;9.940;2023-02-12T15:36:16;13.70;;;7.28;;
31073;SDS011;17730;53.552;9.940;2023-02-12T15:38:47;14.40;;;7.30;;
31073;SDS011;17730;53.552;9.940;2023-02-12T15:43:52;12.57;;;7.13;;
31073;SDS011;17730;53.552;9.940;2023-02-12T15:46:18;12.52;;;6.88;;
31073;SDS011;17730;53.552;9.940;2023-02-12T15:48:44;12.65;;;7.13;;
31073;SDS011;17730;53.552;9.940;2023-02-12T15:51:14;16.60;;;7.50;;
31073;SDS011;17730;53.552;9.940;2023-02-12T15:56:18;10.18;;;6.40;;
31073;SDS011;17730;53.552;9.940;2023-02-12T16:01:20;11.45;;;6.82;;
31073;SDS011;17730;53.552;9.940;2023-02-12T16:03:51;13.43;;;6.60;;
31073;SDS011;17730;53.552;9.940;2023-02-12T16:06:22;50.92;;;18.45;;
31073;SDS011;17730;53.552;9.940;2023-02-12T16:08:53;10.90;;;6.85;;
31073;SDS011;17730;53.552;9.940;2023-02-12T16:11:23;10.02;;;6.38;;
31073;SDS011;17730;53.552;9.940;2023-02-12T16:13:58;12.10;;;7.22;;
31073;SDS011;17730;53.552;9.940;2023-02-12T16:16:34;10.43;;;6.63;;
31073;SDS011;17730;53.552;9.940;2023-02-12T16:19:23;10.73;;;7.57;;
31073;SDS011;17730;53.552;9.940;2023-02-12T16:22:11;18.33;;;10.25;;
31073;SDS011;17730;53.552;9.940;2023-02-12T16:24:44;17.35;;;10.05;;
31073;SDS011;17730;53.552;9.940;2023-02-12T16:27:17;12.52;;;7.30;;
31073;SDS011;17730;53.552;9.940;2023-02-12T16:29:48;12.25;;;6.80;;
31073;SDS011;17730;53.552;9.940;2023-02-12T16:32:35;46.08;;;20.23;;
31073;SDS011;17730;53.552;9.940;2023-02-12T16:40:07;12.18;;;7.85;;
31073;SDS011;17730;53.552;9.940;2023-02-12T16:42:33;14.27;;;8.65;;
31073;SDS011;17730;53.552;9.940;2023-02-12T16:44:58;16.88;;;8.80;;
31073;SDS011;17730;53.552;9.940;2023-02-12T16:47:24;14.90;;;8.73;;
31073;SDS011;17730;53.552;9.940;2023-02-12T16:49:57;23.48;;;12.43;;
31073;SDS011;17730;53.552;9.940;2023-02-12T16:55:04;13.25;;;7.93;;
31073;SDS011;17730;53.552;9.940;2023-02-12T16:57:36;11.18;;;7.15;;
31073;SDS011;17730;53.552;9.940;2023-02-12T17:00:03;13.93;;;8.27;;
31073;SDS011;17730;53.552;9.940;2023-02-12T17:02:29;16.52;;;9.02;;
31073;SDS011;17730;53.552;9.940;2023-02-12T17:04:55;13.27;;;7.18;;
31073;SDS011;17730;53.552;9.940;2023-02-12T17:07:24;14.95;;;8.52;;
31073;SDS011;17730;53.552;9.940;2023-02-12T17:09:53;14.45;;;7.65;;
31073;SDS011;17730;53.552;9.940;2023-02-12T17:12:18;12.52;;;7.72;;
31073;SDS011;17730;53.552;9.940;2023-02-12T17:14:44;12.57;;;8.25;;
31073;SDS011;17730;53.552;9.940;2023-02-12T17:17:10;13.18;;;7.93;;
31073;SDS011;17730;53.552;9.940;2023-02-12T17:19:36;15.15;;;8.85;;